• Join FlightAware (Why Join?)
  • Login
  • US Flag 
08:54AM EST


 

Airport Tracker/Info


-or-


 

Live Flight TrackerFlight Track Log ✈ NKS200 ✈ 26-Jun-2013 ✈ KIAH - KORD

Flight Track Log - Related Links

Times and Time Zones

All times are in EDT time to prevent confusion due to time zone crossing. See the NKS200 flight status page for this flight to view local times or setup timezone preferences in your user account.

Time Position Orientation Groundspeed Altitude Reporting Facility
EDT Latitude Longitude Course Direction KTS MPH feet Rate Location/Type
10:19AM 29.9949 -95.3635 286° West 156 180 900  Level FlightAware ADS-B
10:19AM 29.9963 -95.3667 297° West 159 183 1,100 2,220 Climbing FlightAware ADS-B
10:19AM 29.9979 -95.3691 308° West 162 186 1,200 1,980 Climbing FlightAware ADS-B
10:19AM 29.9996 -95.3711 314° West 169 194 1,300 1,680 Climbing FlightAware ADS-B
10:19AM 30.0021 -95.3735 320° Northwest 174 200 1,400 840 Climbing FlightAware ADS-B
10:19AM 30.0042 -95.3750 328° Northwest 177 204 1,400 840 Level FlightAware ADS-B
10:19AM 30.0068 -95.3765 333° Northwest 181 208 1,500 1,500 Climbing FlightAware ADS-B
10:19AM 30.0099 -95.3777 341° North 188 216 1,600 840 Climbing FlightAware ADS-B
10:19AM 30.0125 -95.3783 349° North 193 222 1,600 960 Level FlightAware ADS-B
10:19AM 30.0155 -95.3788 352° North 196 226 1,700 1,200 Climbing FlightAware ADS-B
10:20AM 30.0217 -95.3796 354° North 204 235 1,800 1,140 Climbing FlightAware ADS-B
10:20AM 30.0363 -95.3810 355° North 225 259 2,100 1,020 Climbing FlightAware ADS-B
10:20AM 30.0520 -95.3826 355° North 250 288 2,300 1,140 Climbing FlightAware ADS-B
10:20AM 30.0604 -95.3833 356° North 262 302 2,500 1,920 Climbing FlightAware ADS-B
10:20AM 30.0825 -95.3852 356° North 281 323 3,100 2,700 Climbing FlightAware ADS-B
10:21AM 30.1035 -95.3870 356° North 287 330 4,000 3,480 Climbing FlightAware ADS-B
10:21AM 30.1239 -95.3886 356° North 290 334 4,900 3,180 Climbing FlightAware ADS-B
10:21AM 30.1455 -95.3904 356° North 295 339 5,700 3,120 Climbing FlightAware ADS-B
10:21AM 30.1534 -95.3913 354° North 295 339 6,000 3,000 Climbing FlightAware ADS-B
10:21AM 30.1594 -95.3926 349° North 296 341 6,200 2,640 Climbing FlightAware ADS-B
10:21AM 30.1647 -95.3945 343° North 295 339 6,400 3,720 Climbing FlightAware ADS-B
10:22AM 30.1693 -95.3966 338° Northwest 293 337 6,700 3,720 Climbing FlightAware ADS-B
10:22AM 30.1837 -95.4060 331° Northwest 289 333 7,400 3,300 Climbing FlightAware ADS-B
10:22AM 30.2012 -95.4180 329° Northwest 290 334 8,200 3,060 Climbing FlightAware ADS-B
10:22AM 30.2202 -95.4307 330° Northwest 293 337 9,000 3,180 Climbing FlightAware ADS-B
10:22AM 30.2381 -95.4427 330° Northwest 292 336 9,900 2,340 Climbing FlightAware ADS-B
10:23AM 30.2747 -95.4680 329° Northwest 318 366 10,800 1,320 Climbing FlightAware ADS-B
10:24AM 30.3159 -95.4970 329° Northwest 352 405 11,300 1,500 Climbing FlightAware ADS-B
10:24AM 30.3660 -95.5324 329° Northwest 367 422 12,500 2,160 Climbing FlightAware ADS-B
10:25AM 30.4099 -95.5635 329° Northwest 371 427 13,700 2,400 Climbing FlightAware ADS-B
10:25AM 30.4547 -95.5952 329° Northwest 374 430 14,900 2,160 Climbing FlightAware ADS-B
10:26AM 30.5001 -95.6272 329° Northwest 381 438 15,900 1,920 Climbing FlightAware ADS-B
10:26AM 30.5285 -95.6472 329° Northwest 384 442 16,500 2,040 Climbing FlightAware ADS-B
10:26AM 30.5405 -95.6547 332° Northwest 385 443 16,800 2,040 Climbing FlightAware ADS-B
10:27AM 30.5896 -95.6810 335° Northwest 389 448 17,800 1,740 Climbing FlightAware ADS-B
10:27AM 30.6418 -95.7088 335° Northwest 400 460 18,600 1,620 Climbing FlightAware ADS-B
10:28AM 30.6933 -95.7364 335° Northwest 407 468 19,500 1,740 Climbing FlightAware ADS-B
10:28AM 30.7479 -95.7656 335° Northwest 413 475 20,400 1,860 Climbing FlightAware ADS-B
10:29AM 30.8015 -95.7945 335° Northwest 410 472 21,500 1,920 Climbing FlightAware ADS-B
10:29AM 30.8559 -95.8236 335° Northwest 412 474 22,400 1,440 Climbing FlightAware ADS-B
10:30AM 30.9089 -95.8520 335° Northwest 420 483 23,000 1,320 Climbing FlightAware ADS-B
10:30AM 30.9714 -95.8857 335° Northwest 421 484 23,900 1,440 Climbing FlightAware ADS-B
10:31AM 31.0251 -95.9145 335° Northwest 428 493 24,600 1,440 Climbing FlightAware ADS-B
10:31AM 31.0827 -95.9456 335° Northwest 428 493 25,400 1,440 Climbing FlightAware ADS-B
10:32AM 31.1153 -95.9629 336° Northwest 431 496 25,800 1,200 Climbing FlightAware ADS-B
10:32AM 31.1374 -95.9712 342° North 431 496 26,000 1,020 Climbing FlightAware ADS-B
10:32AM 31.1484 -95.9741 347° North 431 496 26,100 1,500 Climbing FlightAware ADS-B
10:32AM 31.2141 -95.9888 349° North 430 495 27,000 1,320 Climbing FlightAware ADS-B
10:33AM 31.2778 -96.0037 349° North 435 501 27,600 1,080 Climbing FlightAware ADS-B
10:33AM 31.3403 -96.0185 349° North 440 506 28,200 960 Climbing FlightAware ADS-B
10:34AM 31.4137 -96.0358 349° North 449 517 28,700 960 Climbing FlightAware ADS-B
10:35AM 31.4765 -96.0506 349° North 451 519 29,300 1,380 Climbing FlightAware ADS-B
10:35AM 31.5446 -96.0664 349° North 448 516 30,200 1,440 Climbing FlightAware ADS-B
10:36AM 31.6115 -96.0821 349° North 445 512 30,900 1,200 Climbing FlightAware ADS-B
10:36AM 31.6737 -96.0967 349° North 445 512 31,500 1,140 Climbing FlightAware ADS-B
10:37AM 31.7354 -96.1113 349° North 446 513 32,100 1,140 Climbing FlightAware ADS-B
10:37AM 31.8211 -96.1316 349° North 446 513 32,900 1,200 Climbing FlightAware ADS-B
10:38AM 31.8825 -96.1462 349° North 441 507 33,600 1,500 Climbing FlightAware ADS-B
10:39AM 31.9500 -96.1621 349° North 435 501 34,500 1,140 Climbing FlightAware ADS-B
10:39AM 32.0270 -96.1800 349° North 438 504 35,000 1,080 Climbing FlightAware
10:40AM 32.0856 -96.1942 348° North 429 494 35,800 1,200 Climbing FlightAware ADS-B
10:40AM 32.1527 -96.2102 349° North 429 494 36,300 960 Climbing FlightAware ADS-B
10:40AM 32.1801 -96.2161 350° North 427 491 36,600 660 Climbing FlightAware ADS-B
10:41AM 32.2720 -96.2190 358° North 425 489 37,000 360 Climbing FlightAware
10:42AM 32.3042 -96.2191 360° North 425 489 37,000  Level FlightAware ADS-B
10:42AM 32.3674 -96.2203 359° North 426 490 37,000  Level FlightAware ADS-B
10:43AM 32.4350 -96.2210 359° North 428 493 37,000  Level FlightAware
10:43AM 32.4941 -96.2194 North 430 495 37,000  Level FlightAware ADS-B
10:44AM 32.5570 -96.2122 North 430 495 37,000  Level FlightAware ADS-B
10:44AM 32.6229 -96.2049 North 430 495 37,000  Level FlightAware ADS-B
10:45AM 32.6993 -96.1965 North 429 494 37,000  Level FlightAware ADS-B
10:46AM 32.7775 -96.1878 North 429 494 37,000  Level FlightAware ADS-B
10:46AM 32.8448 -96.1801 North 429 494 37,000  Level FlightAware ADS-B
10:47AM 32.9370 -96.1699 North 432 497 37,000  Level FlightAware ADS-B
10:47AM 33.0092 -96.1617 North 434 499 37,000  Level FlightAware ADS-B
10:48AM 33.1020 -96.1510 North 434 499 37,000  Level FlightAware
10:49AM 33.1713 -96.1432 North 433 498 37,000  Level FlightAware ADS-B
10:50AM 33.2660 -96.1320 North 432 497 37,000  Level FlightAware
10:50AM 33.3610 -96.1220 North 430 495 37,000  Level FlightAware
10:51AM 33.4506 -96.1115 North 431 496 37,000  Level FlightAware ADS-B
10:52AM 33.5130 -96.1043 North 431 496 37,000  Level FlightAware ADS-B
10:52AM 33.6030 -96.0940 North 430 495 37,000  Level FlightAware
10:53AM 33.6880 -96.0840 North 432 497 37,000  Level FlightAware
10:54AM 33.7724 -96.0747 North 436 502 37,000  Level FlightAware ADS-B
10:54AM 33.8340 -96.0676 North 438 504 37,000  Level FlightAware ADS-B
10:55AM 33.9370 -96.0560 North 442 509 37,000  Level FlightAware
10:56AM 34.0250 -96.0460 North 443 510 37,000  Level FlightAware
10:57AM 34.1140 -96.0350 North 444 511 37,000 60 Level FlightAware
10:57AM 34.2000 -96.0250 North 441 507 37,100 60 Climbing FlightAware
10:58AM 34.2740 -96.0170 North 438 504 37,100 -120 Level FlightAware
10:59AM 34.3650 -96.0060 North 433 498 37,000 -120 Descending FlightAware
10:59AM 34.4450 -95.9970 North 429 494 37,000  Level FlightAware
11:00AM 34.5360 -95.9860 North 427 491 37,000  Level FlightAware
11:01AM 34.6180 -95.9770 North 425 489 37,000 -120 Level FlightAware
11:01AM 34.6880 -95.9690 North 427 491 36,900  Descending FlightAware
11:02AM 34.7810 -95.9580 North 428 493 37,000 60 Climbing FlightAware
11:03AM 34.8600 -95.9480 North 430 495 37,000  Level FlightAware
11:04AM 34.9470 -95.9380 North 433 498 37,000  Level FlightAware
11:04AM 35.0320 -95.9280 North 435 501 37,000  Level FlightAware
11:05AM 35.1080 -95.9190 North 438 504 37,000  Level FlightAware
11:06AM 35.1950 -95.9090 North 440 506 37,000  Level FlightAware
11:06AM 35.2590 -95.9020 North 440 506 37,000  Level FlightAware
11:07AM 35.3650 -95.8880 North 442 509 37,000  Level FlightAware
11:08AM 35.4550 -95.8780 North 441 507 37,000  Level FlightAware
11:09AM 35.5960 -95.8620 North 441 507 37,000  Level FlightAware
11:10AM 35.6800 -95.8510 North 438 504 37,000  Level FlightAware
11:11AM 35.7890 -95.8380 North 437 503 37,000  Level FlightAware
11:11AM 35.8740 -95.8270 North 436 502 37,000  Level FlightAware
11:12AM 35.9550 -95.8170 North 435 501 37,000  Level FlightAware
11:13AM 36.0340 -95.8080 North 434 499 37,000  Level FlightAware
11:14AM 36.1580 -95.7590 18° North 434 499 37,000  Level FlightAware
11:14AM 36.2290 -95.7240 22° Northeast 433 498 37,000  Level FlightAware
11:15AM 36.2040 -95.7370 203° Southwest 434 499 37,000  Level FlightAware
11:16AM 36.3920 -95.6350 24° Northeast 437 503 37,000  Level FlightAware
11:17AM 36.4630 -95.5800 32° Northeast 437 503 37,000  Level FlightAware
11:17AM 36.5270 -95.5310 32° Northeast 438 504 37,000  Level FlightAware
11:18AM 36.6060 -95.4710 31° Northeast 437 503 37,000  Level FlightAware
11:19AM 36.6780 -95.4160 31° Northeast 437 503 37,000  Level FlightAware
11:19AM 36.7500 -95.3600 32° Northeast 435 501 37,000  Level FlightAware
11:20AM 36.8200 -95.3050 32° Northeast 435 501 37,000  Level FlightAware
11:21AM 36.8840 -95.2560 31° Northeast 436 502 37,000  Level FlightAware
11:21AM 36.9690 -95.1900 32° Northeast 437 503 37,000  Level FlightAware
11:22AM 37.0380 -95.1360 32° Northeast 437 503 37,000  Level FlightAware
11:23AM 37.1130 -95.0770 32° Northeast 437 503 37,000  Level FlightAware
11:23AM 37.1830 -95.0230 32° Northeast 436 502 37,000  Level FlightAware
11:24AM 37.2510 -94.9690 32° Northeast 435 501 37,000  Level FlightAware
11:25AM 37.3450 -94.8950 32° Northeast 433 498 37,000  Level FlightAware
11:26AM 37.4150 -94.8410 31° Northeast 431 496 37,000  Level FlightAware
11:27AM 37.4890 -94.7820 32° Northeast 430 495 37,000  Level FlightAware
11:27AM 37.5610 -94.7240 33° Northeast 429 494 37,000  Level FlightAware
11:28AM 37.6280 -94.6710 32° Northeast 429 494 37,000  Level FlightAware
11:29AM 37.7010 -94.6130 32° Northeast 431 496 37,000  Level FlightAware
11:29AM 37.7770 -94.5530 32° Northeast 431 496 37,000  Level FlightAware
11:33AM 38.1240 -94.2740 32° Northeast 439 505 37,000  Level FlightAware
11:34AM 38.2060 -94.2070 33° Northeast 440 506 37,000  Level FlightAware
11:34AM 38.2760 -94.1500 33° Northeast 443 510 37,000  Level FlightAware
11:35AM 38.3483 -94.0919 32° Northeast 445 512 37,000  Level FlightAware ADS-B
11:35AM 38.4068 -94.0442 33° Northeast 446 513 37,000  Level FlightAware ADS-B
11:36AM 38.4591 -94.0016 33° Northeast 446 513 37,000  Level FlightAware ADS-B
11:36AM 38.5142 -93.9567 33° Northeast 447 514 37,000  Level FlightAware ADS-B
11:37AM 38.5853 -93.8983 33° Northeast 449 517 37,000  Level FlightAware ADS-B
11:38AM 38.6396 -93.8536 33° Northeast 449 517 37,000  Level FlightAware ADS-B
11:38AM 38.6976 -93.8060 33° Northeast 451 519 37,000  Level FlightAware ADS-B
11:39AM 38.7507 -93.7621 33° Northeast 450 518 37,000  Level FlightAware ADS-B
11:39AM 38.8046 -93.7177 33° Northeast 451 519 37,000  Level FlightAware ADS-B
11:40AM 38.8580 -93.6735 33° Northeast 450 518 37,000  Level FlightAware ADS-B
11:40AM 38.9118 -93.6290 33° Northeast 450 518 37,000  Level FlightAware ADS-B
11:41AM 38.9641 -93.5856 33° Northeast 451 519 37,000  Level FlightAware ADS-B
11:42AM 39.0611 -93.5049 33° Northeast 452 520 37,000  Level FlightAware ADS-B
11:42AM 39.1330 -93.4450 33° Northeast 451 519 37,000 60 Level FlightAware
11:43AM 39.2110 -93.3800 33° Northeast 448 516 37,100  Climbing FlightAware
11:43AM 39.2458 -93.3502 34° Northeast 448 516 37,000 -240 Descending FlightAware ADS-B
11:44AM 39.2614 -93.3355 36° Northeast 451 519 37,000  Level FlightAware ADS-B
11:44AM 39.2843 -93.3064 45° Northeast 455 524 37,000  Level FlightAware ADS-B
11:44AM 39.3310 -93.2380 49° Northeast 455 524 37,000  Level FlightAware
11:45AM 39.3510 -93.2080 49° Northeast 455 524 37,000  Level FlightAware
11:45AM 39.4152 -93.1151 48° Northeast 456 525 37,000  Level FlightAware ADS-B
11:46AM 39.4888 -93.0073 48° Northeast 457 526 37,000  Level FlightAware ADS-B
11:47AM 39.5384 -92.9349 48° Northeast 456 525 37,000  Level FlightAware ADS-B
11:48AM 39.5884 -92.8613 49° Northeast 456 525 37,000  Level FlightAware ADS-B
11:48AM 39.6510 -92.7690 49° Northeast 456 525 37,000  Level FlightAware
11:49AM 39.7270 -92.6550 49° Northeast 455 524 37,000  Level FlightAware
11:50AM 39.7820 -92.5740 49° Northeast 455 524 37,000  Level FlightAware
11:51AM 39.8410 -92.4870 49° Northeast 455 524 37,000  Level FlightAware
11:51AM 39.8900 -92.4140 49° Northeast 455 524 37,000  Level FlightAware
11:52AM 39.9580 -92.3120 49° Northeast 457 526 37,000  Level FlightAware
11:53AM 40.0240 -92.2120 49° Northeast 463 533 37,000  Level FlightAware
11:53AM 40.0810 -92.1260 49° Northeast 468 539 37,000 60 Level FlightAware
11:54AM 40.1400 -92.0370 49° Northeast 472 543 37,100 -360 Climbing FlightAware
11:56AM 40.2760 -91.8300 49° Northeast 466 536 36,300 -1,020 Descending FlightAware
11:59AM 40.5340 -91.4350 49° Northeast 460 529 32,600 -1,200 Descending FlightAware
11:59AM 40.5740 -91.3450 60° Northeast 469 540 31,900 -600 Descending FlightAware
12:02PM 40.6940 -90.9950 66° East 457 526 31,000 -300 Descending FlightAware
12:02PM 40.7330 -90.8800 66° East 458 527 31,000  Level FlightAware
12:03PM 40.7710 -90.7660 66° East 450 518 31,000  Level FlightAware
12:04PM 40.8060 -90.6650 65° Northeast 456 525 31,000  Level FlightAware
12:05PM 40.8410 -90.5590 66° East 460 529 31,000  Level FlightAware
12:05PM 40.8760 -90.4540 66° East 454 522 31,000  Level FlightAware
12:06PM 40.9100 -90.3530 66° East 451 519 31,000  Level FlightAware
12:07PM 40.9550 -90.2160 66° East 454 522 31,000 -420 Level FlightAware
12:08PM 40.9900 -90.1110 66° East 457 526 30,400 -1,260 Descending FlightAware
12:08PM 41.0320 -89.9820 67° East 463 533 29,100 -1,740 Descending FlightAware
12:09PM 41.0630 -89.8870 67° East 454 522 27,900 -1,740 Descending FlightAware
12:09PM 41.0880 -89.8120 66° East 439 505 27,200 -2,040 Descending FlightAware
12:10PM 41.1200 -89.7110 67° East 437 503 25,500 -2,160 Descending FlightAware
12:11PM 41.1570 -89.5980 66° East 423 487 24,100 -2,100 Descending FlightAware
12:12PM 41.1920 -89.5100 62° Northeast 416 479 22,600 -2,220 Descending FlightAware
12:12PM 41.2330 -89.4100 61° Northeast 411 473 21,100 -1,920 Descending FlightAware
12:13PM 41.2710 -89.3140 62° Northeast 398 458 19,800 -1,800 Descending FlightAware
12:14PM 41.3050 -89.2290 62° Northeast 387 445 18,600 -1,800 Descending FlightAware
12:14PM 41.3420 -89.1380 62° Northeast 375 432 17,300 -1,980 Descending FlightAware
12:17PM 41.4810 -88.7890 62° Northeast 365 420 11,400 -1,680 Descending FlightAware
12:18PM 41.5150 -88.7030 62° Northeast 343 395 11,200 -180 Descending FlightAware
12:19PM 41.5410 -88.6360 63° Northeast 325 374 11,200  Level FlightAware
12:19PM 41.5730 -88.5540 62° Northeast 316 364 11,200 -540 Level FlightAware
12:20PM 41.6010 -88.4860 61° Northeast 313 360 10,500 -1,260 Descending FlightAware
12:21PM 41.6240 -88.4420 55° Northeast 310 357 9,800 -1,620 Descending FlightAware
12:21PM 41.6490 -88.4000 51° Northeast 311 358 9,000 -1,740 Descending FlightAware
12:22PM 41.6810 -88.3690 36° Northeast 304 350 8,200 -1,080 Descending FlightAware
12:22PM 41.6990 -88.3630 14° North 293 337 8,200  Level FlightAware
12:22PM 41.7320 -88.3540 12° North 266 306 8,200  Level FlightAware
12:23PM 41.7540 -88.3490 10° North 258 297 8,200 -300 Level FlightAware
12:23PM 41.7830 -88.3400 13° North 252 290 8,000 -900 Descending FlightAware
12:23PM 41.8160 -88.3310 11° North 251 289 7,400 -1,200 Descending FlightAware
12:24PM 41.8470 -88.3220 12° North 252 290 6,900 -1,140 Descending FlightAware
12:24PM 41.8650 -88.3200 North 247 284 6,600 -1,020 Descending FlightAware
12:25PM 41.8950 -88.3190 North 243 280 6,200 -480 Descending FlightAware
12:25PM 41.9260 -88.3180 North 229 264 6,200 -180 Level FlightAware
12:26PM 41.9590 -88.3020 20° North 198 228 6,000 -660 Descending FlightAware
12:26PM 41.9650 -88.2830 67° East 193 222 5,600 -1,020 Descending FlightAware
12:26PM 41.9670 -88.2520 85° East 186 214 5,300 -900 Descending FlightAware
12:27PM 41.9680 -88.2150 88° East 192 221 4,800 -960 Descending FlightAware
12:27PM 41.9680 -88.1860 90° East 189 217 4,400 -1,080 Descending FlightAware
12:28PM 41.9680 -88.1560 90° East 189 217 3,900 -1,020 Descending FlightAware
12:28PM 41.9680 -88.1210 90° East 179 206 3,500 -900 Descending FlightAware
12:29PM 41.9690 -88.0900 88° East 169 194 3,000 -900 Descending FlightAware
12:29PM 41.9690 -88.0590 90° East 166 191 2,600 -780 Descending FlightAware
12:30PM 41.9690 -88.0150 90° East 126 145 2,000 -780 Descending FlightAware
12:31PM 41.9690 -87.9740 90° East 134 154 1,400 -720 Descending FlightAware
12:31PM 41.9690 -87.9580 90° East 135 155 1,200 -720 Descending FlightAware
12:32PM 41.9690 -87.9320 90° East 141 162 800 -840 Descending FlightAware
12:34PM 41.9720 -87.8960 84° East 34 39 -360 Descending FlightAware
12:35PM 41.9740 -87.8920 56° Northeast 34 39  Level FlightAware
12:36PM 41.9780 -87.8960 323° Northwest 27 31  Level FlightAware
12:37PM 41.9770 -87.8970 217° Southwest 11 13  Level FlightAware
12:40PM 41.9817 -87.9067 75° East  Level Estimated